Aviation Digital Data Service (ADDS)

Output produced by TAFs form (2344 UTC 18 July 2018)
found at http://www.aviationweather.gov/adds/tafs/
 
RJFK 182300Z 35003KT 280V050 9999 FEW020 25/22 Q1012 RMK 1CU020 A2989 VOLCANIC ASH CLOUD S
TAF RJFK 182312Z 1900/2006 10011KT 9999 FEW030 
     BECMG 1915/1918 32004KT 
     BECMG 1921/2000 09013KT